createdAt,value
2023-05-14T00:00:55.926Z,66.77
2023-05-14T00:03:23.885Z,66.87
2023-05-14T00:05:53.218Z,67.69
2023-05-14T00:08:20.984Z,67.11
2023-05-14T00:10:48.739Z,67.43
2023-05-14T00:13:16.472Z,67.37
2023-05-14T00:15:44.567Z,68.11
2023-05-14T00:18:12.886Z,68.13
2023-05-14T00:20:40.920Z,68.62
2023-05-14T00:23:10.091Z,68.42
2023-05-14T00:25:38.046Z,68.97
2023-05-14T00:28:06.156Z,68.99
2023-05-14T00:30:34.912Z,68.67
2023-05-14T00:33:02.750Z,69.00
2023-05-14T00:35:30.568Z,69.55
2023-05-14T00:37:58.464Z,69.13
2023-05-14T00:40:28.620Z,69.32
2023-05-14T00:42:57.344Z,69.79
2023-05-14T00:45:25.132Z,69.91
2023-05-14T00:47:53.538Z,70.18
2023-05-14T00:50:22.052Z,70.03
2023-05-14T00:52:50.397Z,69.77
2023-05-14T00:55:18.477Z,70.04
2023-05-14T00:57:47.675Z,70.76
2023-05-14T01:00:16.180Z,70.79
2023-05-14T01:02:44.039Z,70.59
2023-05-14T01:05:11.946Z,70.56
2023-05-14T01:07:50.448Z,70.86
2023-05-14T01:10:26.556Z,71.10
2023-05-14T01:13:04.595Z,71.21
2023-05-14T01:15:35.580Z,71.51
2023-05-14T01:18:08.280Z,71.48
2023-05-14T01:20:36.541Z,72.06
2023-05-14T01:23:05.938Z,71.90
2023-05-14T01:25:33.817Z,72.11
2023-05-14T01:28:08.767Z,72.26
2023-05-14T01:30:38.089Z,72.26
2023-05-14T01:33:11.121Z,72.21
2023-05-14T01:35:39.201Z,72.53
2023-05-14T01:38:12.453Z,72.45
2023-05-14T01:40:40.819Z,72.76
2023-05-14T01:43:09.116Z,73.27
2023-05-14T01:45:37.766Z,72.96
2023-05-14T01:48:05.923Z,73.09
2023-05-14T01:50:33.756Z,73.14
2023-05-14T01:53:01.656Z,73.23
2023-05-14T01:55:30.802Z,72.87
2023-05-14T01:57:58.638Z,73.05
2023-05-14T02:00:26.790Z,73.35
2023-05-14T02:02:54.832Z,73.54
2023-05-14T02:05:24.484Z,73.53
2023-05-14T02:07:54.732Z,74.22
2023-05-14T02:10:22.767Z,74.43
2023-05-14T02:12:52.188Z,74.76
2023-05-14T02:15:19.966Z,75.00
2023-05-14T02:17:47.810Z,74.43
2023-05-14T02:20:15.828Z,74.32
2023-05-14T02:22:45.669Z,74.75
2023-05-14T02:25:13.704Z,74.63
2023-05-14T02:27:41.488Z,74.91
2023-05-14T02:30:12.648Z,74.86
2023-05-14T02:32:40.337Z,74.47
2023-05-14T02:35:09.087Z,75.11
2023-05-14T02:37:36.909Z,75.20
2023-05-14T02:40:05.349Z,75.12
2023-05-14T02:42:33.462Z,75.15
2023-05-14T02:45:01.439Z,75.40
2023-05-14T02:47:30.646Z,75.80
2023-05-14T02:49:58.402Z,75.81
2023-05-14T02:52:26.196Z,75.95
2023-05-14T02:54:54.514Z,76.32
2023-05-14T02:57:22.305Z,76.59
2023-05-14T02:59:50.059Z,76.72
2023-05-14T03:02:18.290Z,76.62
2023-05-14T03:04:48.211Z,76.63
2023-05-14T03:07:15.990Z,76.51
2023-05-14T03:09:43.716Z,77.11
2023-05-14T03:12:12.643Z,77.09
2023-05-14T03:14:40.415Z,77.15
2023-05-14T03:17:08.285Z,77.40
2023-05-14T03:19:36.111Z,77.78
2023-05-14T03:22:05.739Z,77.75
2023-05-14T03:24:33.558Z,77.78
2023-05-14T03:27:01.322Z,77.83
2023-05-14T03:29:29.285Z,77.73
2023-05-14T03:31:57.156Z,78.12
2023-05-14T03:34:25.324Z,78.34
2023-05-14T03:36:53.068Z,78.46
2023-05-14T03:39:22.151Z,78.68
2023-05-14T03:41:50.038Z,78.66
2023-05-14T03:44:17.922Z,78.86
2023-05-14T03:46:45.831Z,79.39
2023-05-14T03:49:13.777Z,79.43
2023-05-14T03:51:41.596Z,79.73
2023-05-14T03:54:09.422Z,79.64
2023-05-14T03:56:38.528Z,80.13
2023-05-14T03:59:06.400Z,80.35
2023-05-14T04:01:34.152Z,80.56
2023-05-14T04:04:01.967Z,80.85
2023-05-14T04:06:30.082Z,81.16
2023-05-14T04:08:57.899Z,81.41
2023-05-14T04:11:25.683Z,81.14
2023-05-14T04:13:54.812Z,81.10
2023-05-14T04:16:23.502Z,81.48
2023-05-14T04:18:51.610Z,81.74
2023-05-14T04:21:19.393Z,81.28
2023-05-14T04:23:47.218Z,81.63
2023-05-14T04:26:15.025Z,81.58
2023-05-14T04:28:42.813Z,81.80
2023-05-14T04:31:11.902Z,81.93
2023-05-14T04:33:40.042Z,81.92
2023-05-14T04:36:08.370Z,81.91
2023-05-14T04:38:36.177Z,81.98
2023-05-14T04:41:03.918Z,82.14
2023-05-14T04:43:31.646Z,82.55
2023-05-14T04:45:59.502Z,82.48
2023-05-14T04:48:28.789Z,82.75
2023-05-14T04:50:56.530Z,82.75
2023-05-14T04:53:24.405Z,83.18
2023-05-14T04:55:52.344Z,82.97
2023-05-14T04:58:20.064Z,83.46
2023-05-14T05:00:47.910Z,83.40
2023-05-14T05:03:15.867Z,83.42
2023-05-14T05:05:45.063Z,83.68
2023-05-14T05:08:12.852Z,83.64
2023-05-14T05:10:40.648Z,83.66
2023-05-14T05:13:08.392Z,83.94
2023-05-14T05:15:36.167Z,83.97
2023-05-14T05:18:04.030Z,83.61
2023-05-14T05:20:32.463Z,83.93
2023-05-14T05:23:01.626Z,84.35
2023-05-14T05:25:29.405Z,84.24
2023-05-14T05:27:57.182Z,83.84
2023-05-14T05:30:25.254Z,84.23
2023-05-14T05:32:53.380Z,84.30
2023-05-14T05:35:21.261Z,84.27
2023-05-14T05:37:49.090Z,84.55
2023-05-14T05:40:18.989Z,84.41
2023-05-14T05:42:46.802Z,84.15
2023-05-14T05:45:14.584Z,84.25
2023-05-14T05:47:42.424Z,84.33
2023-05-14T05:50:11.237Z,84.28
2023-05-14T05:52:39.375Z,84.27
2023-05-14T05:55:07.858Z,84.13
2023-05-14T05:57:36.993Z,84.09
2023-05-14T06:00:13.166Z,84.25
2023-05-14T06:02:42.108Z,84.40
2023-05-14T06:05:11.131Z,84.59
2023-05-14T06:07:39.106Z,84.65
2023-05-14T06:10:08.195Z,84.61
2023-05-14T06:12:37.400Z,84.33
2023-05-14T06:15:05.848Z,84.56
2023-05-14T06:17:33.685Z,84.44
2023-05-14T06:20:01.436Z,84.54
2023-05-14T06:22:29.191Z,84.23
2023-05-14T06:24:56.934Z,84.12
2023-05-14T06:27:24.713Z,84.52
2023-05-14T06:29:53.795Z,84.51
2023-05-14T06:32:21.673Z,84.28
2023-05-14T06:34:49.479Z,84.20
2023-05-14T06:37:17.247Z,83.88
2023-05-14T06:39:50.084Z,83.70
2023-05-14T06:42:18.269Z,83.37
2023-05-14T06:44:46.299Z,82.55
2023-05-14T06:47:15.413Z,82.47
2023-05-14T06:49:43.151Z,82.47
2023-05-14T06:52:10.918Z,81.79
2023-05-14T06:54:39.356Z,80.81
2023-05-14T06:57:07.197Z,80.36
2023-05-14T06:59:34.965Z,79.44
2023-05-14T07:02:03.163Z,78.22
2023-05-14T07:04:32.396Z,77.76
2023-05-14T07:07:00.201Z,76.13
2023-05-14T07:09:27.953Z,76.07
2023-05-14T07:11:55.772Z,75.48
2023-05-14T07:14:23.540Z,75.67
2023-05-14T07:16:51.345Z,75.50
2023-05-14T07:19:19.236Z,75.60
2023-05-14T07:21:48.382Z,74.53
2023-05-14T07:24:16.167Z,73.15
2023-05-14T07:26:44.977Z,73.75
2023-05-14T07:29:12.836Z,73.33
2023-05-14T07:31:40.632Z,72.97
2023-05-14T07:34:10.821Z,72.88
2023-05-14T07:36:38.679Z,71.72
2023-05-14T07:39:07.843Z,72.02
2023-05-14T07:41:35.598Z,71.97
2023-05-14T07:44:03.386Z,71.40
2023-05-14T07:46:31.113Z,70.75
2023-05-14T07:48:58.866Z,69.80
2023-05-14T07:51:28.205Z,70.01
2023-05-14T07:53:56.538Z,68.86
2023-05-14T07:56:25.861Z,68.32
2023-05-14T07:58:53.646Z,67.53
2023-05-14T08:01:21.722Z,67.00
2023-05-14T08:03:49.613Z,66.11
2023-05-14T08:06:17.444Z,65.55
2023-05-14T08:08:45.202Z,65.67
2023-05-14T08:11:13.031Z,65.42
2023-05-14T08:13:42.303Z,66.15
2023-05-14T08:16:10.126Z,66.57
2023-05-14T08:18:37.999Z,66.86
2023-05-14T08:21:06.238Z,66.10
2023-05-14T08:23:34.026Z,66.71
2023-05-14T08:26:01.769Z,66.60
2023-05-14T08:28:29.540Z,65.82
2023-05-14T08:30:58.772Z,64.87
2023-05-14T08:33:26.537Z,65.37
2023-05-14T08:35:54.963Z,64.61
2023-05-14T08:38:22.770Z,64.90
2023-05-14T08:40:57.637Z,64.64
2023-05-14T08:43:27.500Z,62.99
2023-05-14T08:46:02.399Z,61.79
2023-05-14T08:48:33.788Z,61.32
2023-05-14T08:51:02.992Z,61.08
2023-05-14T08:53:32.171Z,60.68
2023-05-14T08:56:02.108Z,59.96
2023-05-14T08:58:29.896Z,59.80
2023-05-14T09:00:57.829Z,58.36
2023-05-14T09:03:27.020Z,59.08
2023-05-14T09:05:55.182Z,57.93
2023-05-14T09:08:23.174Z,57.81
2023-05-14T09:10:50.985Z,56.82
2023-05-14T09:13:18.807Z,55.67
2023-05-14T09:15:49.102Z,56.20
2023-05-14T09:18:17.147Z,57.31
2023-05-14T09:20:48.375Z,55.47
2023-05-14T09:23:16.109Z,55.69
2023-05-14T09:25:43.926Z,56.15
2023-05-14T09:28:11.660Z,54.21
2023-05-14T09:30:39.474Z,53.72
2023-05-14T09:33:10.329Z,52.92
2023-05-14T09:35:40.279Z,53.16
2023-05-14T09:38:09.441Z,51.42
2023-05-14T09:40:37.327Z,52.10
2023-05-14T09:43:05.392Z,52.74
2023-05-14T09:45:33.176Z,52.23
2023-05-14T09:48:01.760Z,51.23
2023-05-14T09:50:29.688Z,51.38
2023-05-14T09:52:57.487Z,51.52
2023-05-14T09:55:27.256Z,50.84
2023-05-14T09:57:55.033Z,50.44
2023-05-14T10:00:23.596Z,50.48
2023-05-14T10:02:53.616Z,50.54
2023-05-14T10:05:24.688Z,50.64
2023-05-14T10:07:55.366Z,50.25
2023-05-14T10:10:27.717Z,49.40
2023-05-14T10:12:59.629Z,49.29
2023-05-14T10:15:34.604Z,48.63
2023-05-14T10:18:09.009Z,48.56
2023-05-14T10:20:38.736Z,47.78
2023-05-14T10:23:07.933Z,48.03
2023-05-14T10:25:36.819Z,47.22
2023-05-14T10:28:06.875Z,47.90
2023-05-14T10:30:34.688Z,47.89
2023-05-14T10:33:09.936Z,48.33
2023-05-14T10:36:02.343Z,48.02
2023-05-14T10:38:31.704Z,45.79
2023-05-14T10:41:03.808Z,45.00
2023-05-14T10:43:38.463Z,45.86
2023-05-14T10:46:07.615Z,46.09
2023-05-14T10:48:37.674Z,45.43
2023-05-14T10:51:08.664Z,44.59
2023-05-14T10:53:38.426Z,44.94
2023-05-14T10:56:07.992Z,44.29
2023-05-14T10:58:38.803Z,45.12
2023-05-14T11:01:08.357Z,44.90
2023-05-14T11:03:41.815Z,44.82
2023-05-14T11:06:11.060Z,43.95
2023-05-14T11:08:39.276Z,43.34
2023-05-14T11:11:07.341Z,44.50
2023-05-14T11:13:35.247Z,43.32
2023-05-14T11:16:15.644Z,43.48
2023-05-14T11:18:54.777Z,43.21
2023-05-14T11:21:22.769Z,42.86
2023-05-14T11:23:50.965Z,42.87
2023-05-14T11:26:21.424Z,42.52
2023-05-14T11:28:49.641Z,42.71
2023-05-14T11:31:19.020Z,40.84
2023-05-14T11:33:47.192Z,41.50
2023-05-14T11:36:15.009Z,41.07
2023-05-14T11:38:48.813Z,41.67
2023-05-14T11:41:16.709Z,41.77
2023-05-14T11:43:44.655Z,42.35
2023-05-14T11:46:19.384Z,41.93
2023-05-14T11:48:47.402Z,41.89
2023-05-14T11:51:15.143Z,42.08
2023-05-14T11:53:42.950Z,42.31
2023-05-14T11:56:11.344Z,42.29
2023-05-14T11:58:39.218Z,41.74
2023-05-14T12:01:07.017Z,40.67
2023-05-14T12:03:36.487Z,41.80
2023-05-14T12:06:07.982Z,41.12
2023-05-14T12:08:35.784Z,40.56
2023-05-14T12:11:03.589Z,41.81
2023-05-14T12:13:32.408Z,41.20
2023-05-14T12:16:02.230Z,41.41
2023-05-14T12:18:32.905Z,40.05
2023-05-14T12:21:07.908Z,39.59
2023-05-14T12:23:35.972Z,40.26
2023-05-14T12:26:06.148Z,40.29
2023-05-14T12:28:36.071Z,42.13
2023-05-14T12:31:05.786Z,40.44
2023-05-14T12:33:33.616Z,40.11
2023-05-14T12:36:19.757Z,40.38
2023-05-14T12:38:50.350Z,40.55
2023-05-14T12:41:18.499Z,40.14
2023-05-14T12:43:49.522Z,40.25
2023-05-14T12:46:17.524Z,41.37
2023-05-14T12:48:45.338Z,40.36
2023-05-14T12:51:13.122Z,40.83
2023-05-14T12:53:41.232Z,40.86
2023-05-14T12:56:11.009Z,40.95
2023-05-14T12:58:39.087Z,40.84
2023-05-14T13:01:07.717Z,41.34
2023-05-14T13:03:35.562Z,41.35
2023-05-14T13:06:03.440Z,39.98
2023-05-14T13:08:31.205Z,40.77
2023-05-14T13:10:58.960Z,40.14
2023-05-14T13:13:28.369Z,39.90
2023-05-14T13:15:56.226Z,41.15
2023-05-14T13:18:23.993Z,41.05
2023-05-14T13:20:51.814Z,41.77
2023-05-14T13:23:19.578Z,41.12
2023-05-14T13:25:49.732Z,41.40
2023-05-14T13:28:17.719Z,41.76
2023-05-14T13:31:05.956Z,41.60
2023-05-14T13:33:34.524Z,41.62
2023-05-14T13:36:02.325Z,42.45
2023-05-14T13:38:30.176Z,41.52
2023-05-14T13:41:02.118Z,41.19
2023-05-14T13:43:30.991Z,43.10
2023-05-14T13:46:01.053Z,41.18
2023-05-14T13:48:29.019Z,41.14
2023-05-14T13:50:56.811Z,42.07
2023-05-14T13:53:25.675Z,41.88
2023-05-14T13:55:56.372Z,40.92
2023-05-14T13:58:25.117Z,41.15
2023-05-14T14:00:53.507Z,41.20
2023-05-14T14:03:22.652Z,41.83
2023-05-14T14:05:51.561Z,41.87
2023-05-14T14:08:23.920Z,41.94
2023-05-14T14:10:54.391Z,41.64
2023-05-14T14:13:22.875Z,41.68
2023-05-14T14:15:51.280Z,42.74
2023-05-14T14:18:19.171Z,42.67
2023-05-14T14:20:48.550Z,42.08
2023-05-14T14:23:16.443Z,40.73
2023-05-14T14:25:44.355Z,40.18
2023-05-14T14:28:12.089Z,40.96
2023-05-14T14:30:39.898Z,41.30
2023-05-14T14:33:07.801Z,41.77
2023-05-14T14:35:36.298Z,41.98
2023-05-14T14:38:05.681Z,41.54
2023-05-14T14:40:34.208Z,41.08
2023-05-14T14:43:02.010Z,40.79
2023-05-14T14:45:29.756Z,41.71
2023-05-14T14:48:25.825Z,41.26
2023-05-14T14:50:54.038Z,40.48
2023-05-14T14:53:23.972Z,39.60
2023-05-14T14:55:52.144Z,39.65
2023-05-14T14:58:21.338Z,39.63
2023-05-14T15:00:50.023Z,40.42
2023-05-14T15:03:18.721Z,40.69
2023-05-14T15:05:47.008Z,42.10
2023-05-14T15:08:14.790Z,41.47
2023-05-14T15:10:45.656Z,41.91
2023-05-14T15:13:13.786Z,41.71
2023-05-14T15:15:41.668Z,41.05
2023-05-14T15:18:10.053Z,41.15
2023-05-14T15:20:38.573Z,41.60
2023-05-14T15:23:06.817Z,42.16
2023-05-14T15:25:34.597Z,41.74
2023-05-14T15:28:03.798Z,42.61
2023-05-14T15:30:31.612Z,43.34
2023-05-14T15:32:59.441Z,43.33
2023-05-14T15:35:27.349Z,42.40
2023-05-14T15:37:56.990Z,42.69
2023-05-14T15:40:24.930Z,43.32
2023-05-14T15:42:52.797Z,41.67
2023-05-14T15:45:22.178Z,42.75
2023-05-14T15:47:50.027Z,43.61
2023-05-14T15:50:17.836Z,42.78
2023-05-14T15:52:45.743Z,42.42
2023-05-14T15:55:13.504Z,43.02
2023-05-14T15:57:41.296Z,42.42
2023-05-14T16:00:11.010Z,42.21
2023-05-14T16:02:40.437Z,43.26
2023-05-14T16:05:09.103Z,43.68
2023-05-14T16:07:37.380Z,43.98
2023-05-14T16:10:05.975Z,44.33
2023-05-14T16:12:33.831Z,45.39
2023-05-14T16:15:01.646Z,45.57
2023-05-14T16:17:30.440Z,45.73
2023-05-14T16:20:00.765Z,46.32
2023-05-14T16:22:29.191Z,46.32
2023-05-14T16:24:57.002Z,47.37
2023-05-14T16:27:24.811Z,47.21
2023-05-14T16:29:52.576Z,47.49
2023-05-14T16:32:21.562Z,47.87
2023-05-14T16:34:50.598Z,48.23
2023-05-14T16:37:20.599Z,48.60
2023-05-14T16:39:48.612Z,49.14
2023-05-14T16:42:16.382Z,48.83
2023-05-14T16:44:44.141Z,48.57
2023-05-14T16:47:12.040Z,49.21
2023-05-14T16:49:39.794Z,49.07
2023-05-14T16:52:08.402Z,48.59
2023-05-14T16:54:37.612Z,48.01
2023-05-14T16:57:06.411Z,49.01
2023-05-14T16:59:34.193Z,48.89
2023-05-14T17:02:02.059Z,48.86
2023-05-14T17:04:29.912Z,48.30
2023-05-14T17:06:58.098Z,48.85
2023-05-14T17:09:25.965Z,49.41
2023-05-14T17:11:55.087Z,49.97
2023-05-14T17:14:22.827Z,50.87
2023-05-14T17:16:50.647Z,51.78
2023-05-14T17:19:18.464Z,52.34
2023-05-14T17:21:46.227Z,53.45
2023-05-14T17:24:13.968Z,55.29
2023-05-14T17:26:41.955Z,56.25
2023-05-14T17:29:11.117Z,56.39
2023-05-14T17:31:38.896Z,57.07
2023-05-14T17:34:06.708Z,57.33
2023-05-14T17:36:34.503Z,58.31
2023-05-14T17:39:02.309Z,57.77
2023-05-14T17:41:30.100Z,57.59
2023-05-14T17:43:57.884Z,57.47
2023-05-14T17:46:27.233Z,57.77
2023-05-14T17:48:54.970Z,57.26
2023-05-14T17:51:22.739Z,57.33
2023-05-14T17:53:50.843Z,57.68
2023-05-14T17:56:18.696Z,57.17
2023-05-14T17:58:46.629Z,57.63
2023-05-14T18:01:14.423Z,57.91
2023-05-14T18:03:43.704Z,58.99
2023-05-14T18:06:11.637Z,59.69
2023-05-14T18:08:39.459Z,60.06
2023-05-14T18:11:07.331Z,61.02
2023-05-14T18:13:35.127Z,61.52
2023-05-14T18:16:03.847Z,61.15
2023-05-14T18:18:32.075Z,61.77
2023-05-14T18:21:01.294Z,62.32
2023-05-14T18:23:29.100Z,61.96
2023-05-14T18:25:56.927Z,61.78
2023-05-14T18:28:24.847Z,62.06
2023-05-14T18:30:52.667Z,62.41
2023-05-14T18:33:20.487Z,63.22
2023-05-14T18:35:48.297Z,63.58
2023-05-14T18:38:17.964Z,63.21
2023-05-14T18:40:45.982Z,63.24
2023-05-14T18:43:15.002Z,62.95
2023-05-14T18:45:43.072Z,62.47
2023-05-14T18:48:10.986Z,62.15
2023-05-14T18:50:39.555Z,62.10
2023-05-14T18:53:08.364Z,61.99
2023-05-14T18:55:37.640Z,62.13
2023-05-14T18:58:05.492Z,62.59
2023-05-14T19:00:33.244Z,62.62
2023-05-14T19:03:01.047Z,61.99
2023-05-14T19:05:28.933Z,62.02
2023-05-14T19:07:57.598Z,62.06
2023-05-14T19:10:25.390Z,62.36
2023-05-14T19:12:54.563Z,63.08
2023-05-14T19:15:22.739Z,63.73
2023-05-14T19:17:52.052Z,64.10
2023-05-14T19:20:20.085Z,64.28
2023-05-14T19:22:47.881Z,64.89
2023-05-14T19:25:15.855Z,65.24
2023-05-14T19:27:44.837Z,65.52
2023-05-14T19:30:15.035Z,65.47
2023-05-14T19:32:42.865Z,65.19
2023-05-14T19:35:11.427Z,65.41
2023-05-14T19:37:39.291Z,63.84
2023-05-14T19:40:08.437Z,63.22
2023-05-14T19:42:36.221Z,63.16
2023-05-14T19:45:04.363Z,63.71
2023-05-14T19:47:33.588Z,63.85
2023-05-14T19:50:01.371Z,64.27
2023-05-14T19:52:29.136Z,64.74
2023-05-14T19:54:56.877Z,65.56
2023-05-14T19:57:24.679Z,65.73
2023-05-14T19:59:52.471Z,66.23
2023-05-14T20:02:21.659Z,66.67
2023-05-14T20:04:51.619Z,66.61
2023-05-14T20:07:20.111Z,67.44
2023-05-14T20:09:47.863Z,67.37
2023-05-14T20:12:16.752Z,67.41
2023-05-14T20:14:44.864Z,67.89
2023-05-14T20:17:12.780Z,68.17
2023-05-14T20:19:41.142Z,68.42
2023-05-14T20:22:10.282Z,68.30
2023-05-14T20:24:38.551Z,69.42
2023-05-14T20:27:06.856Z,69.44
2023-05-14T20:29:34.640Z,69.28
2023-05-14T20:32:02.436Z,69.44
2023-05-14T20:34:30.198Z,69.06
2023-05-14T20:36:58.506Z,69.40
2023-05-14T20:39:27.593Z,69.44
2023-05-14T20:41:55.427Z,69.57
2023-05-14T20:44:23.232Z,69.05
2023-05-14T20:46:51.228Z,69.19
2023-05-14T20:49:19.112Z,68.87
2023-05-14T20:51:46.861Z,68.94
2023-05-14T20:54:14.636Z,68.84
2023-05-14T20:56:43.762Z,68.73
2023-05-14T20:59:11.544Z,69.12
2023-05-14T21:01:39.362Z,69.21
2023-05-14T21:04:08.063Z,69.17
2023-05-14T21:06:36.114Z,68.88
2023-05-14T21:09:03.858Z,68.81
2023-05-14T21:11:31.618Z,68.58
2023-05-14T21:14:00.897Z,68.53
2023-05-14T21:16:28.826Z,69.27
2023-05-14T21:18:56.620Z,69.35
2023-05-14T21:21:24.423Z,68.75
2023-05-14T21:23:52.206Z,69.84
2023-05-14T21:26:22.731Z,69.89
2023-05-14T21:28:50.630Z,69.40
2023-05-14T21:31:19.779Z,70.10
2023-05-14T21:33:47.838Z,70.17
2023-05-14T21:36:15.735Z,69.88
2023-05-14T21:38:43.647Z,70.02
2023-05-14T21:41:11.452Z,70.49
2023-05-14T21:43:40.586Z,70.49
2023-05-14T21:46:08.650Z,71.04
2023-05-14T21:48:37.800Z,71.53
2023-05-14T21:51:07.891Z,72.36
2023-05-14T21:53:35.722Z,72.48
2023-05-14T21:56:03.506Z,73.36
2023-05-14T21:58:31.276Z,73.18
2023-05-14T22:00:59.076Z,73.04
2023-05-14T22:03:26.926Z,72.97
2023-05-14T22:05:56.153Z,73.28
2023-05-14T22:08:24.321Z,72.65
2023-05-14T22:10:52.178Z,73.03
2023-05-14T22:13:19.942Z,74.08
2023-05-14T22:15:48.489Z,74.35
2023-05-14T22:18:18.201Z,74.52
2023-05-14T22:20:46.059Z,74.35
2023-05-14T22:23:15.203Z,73.66
2023-05-14T22:25:43.759Z,73.84
2023-05-14T22:28:11.514Z,73.71
2023-05-14T22:30:39.248Z,74.44
2023-05-14T22:33:07.052Z,74.12
2023-05-14T22:35:34.850Z,74.56
2023-05-14T22:38:02.588Z,74.83
2023-05-14T22:40:31.705Z,75.18
2023-05-14T22:42:59.467Z,75.47
2023-05-14T22:45:27.391Z,75.18
2023-05-14T22:47:55.274Z,75.39
2023-05-14T22:50:23.123Z,76.00
2023-05-14T22:52:50.889Z,76.36
2023-05-14T22:55:18.811Z,76.55
2023-05-14T22:57:48.057Z,76.65
2023-05-14T23:00:16.479Z,77.30
2023-05-14T23:02:44.548Z,77.37
2023-05-14T23:05:12.432Z,77.93
2023-05-14T23:07:40.555Z,78.02
2023-05-14T23:10:09.033Z,78.63
2023-05-14T23:12:36.769Z,78.25
2023-05-14T23:15:06.943Z,78.64
2023-05-14T23:17:34.878Z,78.59
2023-05-14T23:20:04.868Z,77.90
2023-05-14T23:22:32.647Z,78.11
2023-05-14T23:25:00.427Z,78.18
2023-05-14T23:27:28.238Z,78.58
2023-05-14T23:29:56.056Z,78.71
2023-05-14T23:32:25.271Z,79.44
2023-05-14T23:34:53.097Z,79.52
2023-05-14T23:37:20.838Z,79.58
2023-05-14T23:39:48.692Z,80.04
2023-05-14T23:42:16.457Z,80.17
2023-05-14T23:44:44.236Z,80.52
2023-05-14T23:47:12.482Z,80.32
2023-05-14T23:49:41.633Z,79.41
2023-05-14T23:52:09.371Z,79.66
2023-05-14T23:54:37.134Z,79.84
2023-05-14T23:57:05.261Z,79.93
2023-05-14T23:59:33.062Z,79.68
